createdAt,value
2017-11-03T00:00:42.584Z,0
2017-11-03T00:01:42.907Z,0
2017-11-03T00:02:42.904Z,0
2017-11-03T00:03:43.229Z,0
2017-11-03T00:04:42.900Z,0
2017-11-03T00:05:42.631Z,0
2017-11-03T00:06:43.218Z,0
2017-11-03T00:07:43.215Z,0
2017-11-03T00:08:43.221Z,0
2017-11-03T00:09:42.605Z,0
2017-11-03T00:10:42.914Z,0
2017-11-03T00:11:42.890Z,0
2017-11-03T00:12:42.928Z,0
2017-11-03T00:13:43.219Z,0
2017-11-03T00:14:42.872Z,0
2017-11-03T00:15:42.581Z,0
2017-11-03T00:16:42.558Z,0
2017-11-03T00:17:43.189Z,0
2017-11-03T00:18:42.874Z,0
2017-11-03T00:19:42.872Z,0
2017-11-03T00:20:43.206Z,0
2017-11-03T00:21:43.196Z,0
2017-11-03T00:22:42.548Z,0
2017-11-03T00:23:42.536Z,0
2017-11-03T00:24:42.854Z,0
2017-11-03T00:25:43.193Z,0
2017-11-03T00:26:42.866Z,0
2017-11-03T00:27:43.167Z,0
2017-11-03T00:28:42.859Z,0
2017-11-03T00:29:43.169Z,0
2017-11-03T00:30:43.526Z,0
2017-11-03T00:31:42.841Z,0
2017-11-03T00:32:42.852Z,0
2017-11-03T00:33:43.175Z,0
2017-11-03T00:34:42.832Z,0
2017-11-03T00:35:43.170Z,0
2017-11-03T00:36:43.168Z,0
2017-11-03T00:37:43.165Z,0
2017-11-03T00:38:42.835Z,0
2017-11-03T00:39:42.826Z,0
2017-11-03T00:40:42.502Z,0
2017-11-03T00:41:43.148Z,0
2017-11-03T00:42:42.572Z,0
2017-11-03T00:43:42.831Z,0
2017-11-03T00:44:42.821Z,0
2017-11-03T00:45:44.977Z,0
2017-11-03T00:46:42.810Z,0
2017-11-03T00:47:42.809Z,0
2017-11-03T00:48:42.819Z,0
2017-11-03T00:49:42.803Z,0
2017-11-03T00:50:43.131Z,0
2017-11-03T00:51:43.121Z,0
2017-11-03T00:52:43.129Z,0
2017-11-03T00:53:42.799Z,0
2017-11-03T00:54:43.117Z,0
2017-11-03T00:55:42.789Z,0
2017-11-03T00:56:43.116Z,0
2017-11-03T00:57:43.122Z,0
2017-11-03T00:58:42.800Z,0
2017-11-03T00:59:42.779Z,0
2017-11-03T01:00:42.829Z,0
2017-11-03T01:01:43.096Z,0
2017-11-03T01:02:42.779Z,0
2017-11-03T01:03:42.780Z,0
2017-11-03T01:04:43.563Z,0
2017-11-03T01:05:42.785Z,0
2017-11-03T01:06:42.780Z,0
2017-11-03T01:07:42.774Z,0
2017-11-03T01:08:42.455Z,0
2017-11-03T01:09:43.101Z,0
2017-11-03T01:10:43.103Z,0
2017-11-03T01:11:42.760Z,0
2017-11-03T01:12:42.763Z,0
2017-11-03T01:13:43.085Z,0
2017-11-03T01:14:42.439Z,0
2017-11-03T01:15:42.733Z,0
2017-11-03T01:16:42.432Z,0
2017-11-03T01:17:43.063Z,0
2017-11-03T01:18:42.751Z,0
2017-11-03T01:19:43.073Z,0
2017-11-03T01:20:42.745Z,0
2017-11-03T01:21:42.732Z,0
2017-11-03T01:22:42.739Z,0
2017-11-03T01:23:43.054Z,0
2017-11-03T01:24:43.046Z,0
2017-11-03T01:25:43.067Z,0
2017-11-03T01:26:43.050Z,0
2017-11-03T01:27:43.059Z,0
2017-11-03T01:28:43.052Z,0
2017-11-03T01:29:42.404Z,0
2017-11-03T01:30:43.034Z,0
2017-11-03T01:31:42.711Z,0
2017-11-03T01:32:42.714Z,0
2017-11-03T01:33:43.034Z,0
2017-11-03T01:34:42.753Z,0
2017-11-03T01:35:42.713Z,0
2017-11-03T01:36:42.709Z,0
2017-11-03T01:37:42.694Z,0
2017-11-03T01:38:42.701Z,0
2017-11-03T01:39:43.044Z,0
2017-11-03T01:40:43.015Z,0
2017-11-03T01:41:42.696Z,0
2017-11-03T01:42:43.041Z,0
2017-11-03T01:43:42.691Z,0
2017-11-03T01:44:42.691Z,0
2017-11-03T01:45:42.362Z,0
2017-11-03T01:46:42.363Z,0
2017-11-03T01:47:43.018Z,0
2017-11-03T01:48:43.013Z,0
2017-11-03T01:49:42.359Z,0
2017-11-03T01:50:42.366Z,0
2017-11-03T01:51:42.377Z,0
2017-11-03T01:52:42.989Z,0
2017-11-03T01:53:43.013Z,0
2017-11-03T01:54:42.658Z,0
2017-11-03T01:55:42.989Z,0
2017-11-03T01:56:42.672Z,0
2017-11-03T01:57:42.665Z,0
2017-11-03T01:58:42.658Z,0
2017-11-03T01:59:42.969Z,0
2017-11-03T02:00:42.985Z,0
2017-11-03T02:01:46.130Z,0
2017-11-03T02:02:42.656Z,0
2017-11-03T02:03:42.642Z,0
2017-11-03T02:04:42.645Z,0
2017-11-03T02:05:42.963Z,0
2017-11-03T02:06:42.969Z,0
2017-11-03T02:07:42.966Z,0
2017-11-03T02:08:42.653Z,0
2017-11-03T02:09:42.314Z,0
2017-11-03T02:10:42.310Z,0
2017-11-03T02:11:42.949Z,0
2017-11-03T02:12:42.950Z,0
2017-11-03T02:13:42.624Z,0
2017-11-03T02:14:42.618Z,0
2017-11-03T02:15:42.941Z,0
2017-11-03T02:16:44.722Z,0
2017-11-03T02:17:42.921Z,0
2017-11-03T02:18:42.652Z,0
2017-11-03T02:19:42.925Z,0
2017-11-03T02:20:42.272Z,0
2017-11-03T02:21:42.278Z,0
2017-11-03T02:22:42.604Z,0
2017-11-03T02:23:42.593Z,0
2017-11-03T02:24:42.920Z,0
2017-11-03T02:25:42.266Z,0
2017-11-03T02:26:42.605Z,0
2017-11-03T02:27:42.897Z,0
2017-11-03T02:28:42.588Z,0
2017-11-03T02:29:42.892Z,0
2017-11-03T02:30:42.893Z,0
2017-11-03T02:31:42.588Z,0
2017-11-03T02:32:42.256Z,0
2017-11-03T02:33:42.893Z,0
2017-11-03T02:34:42.882Z,0
2017-11-03T02:35:42.880Z,0
2017-11-03T02:36:42.592Z,0
2017-11-03T02:37:42.225Z,0
2017-11-03T02:38:42.870Z,0
2017-11-03T02:39:42.871Z,0
2017-11-03T02:40:42.863Z,0
2017-11-03T02:41:42.554Z,0
2017-11-03T02:42:42.541Z,0
2017-11-03T02:43:42.250Z,0
2017-11-03T02:44:42.216Z,0
2017-11-03T02:45:42.536Z,0
2017-11-03T02:46:44.103Z,0
2017-11-03T02:47:42.844Z,0
2017-11-03T02:48:42.849Z,0
2017-11-03T02:49:42.839Z,0
2017-11-03T02:50:42.841Z,0
2017-11-03T02:51:42.204Z,0
2017-11-03T02:52:42.834Z,0
2017-11-03T02:53:42.508Z,0
2017-11-03T02:54:42.543Z,0
2017-11-03T02:55:42.535Z,0
2017-11-03T02:56:42.824Z,0
2017-11-03T02:57:42.497Z,0
2017-11-03T02:58:42.824Z,0
2017-11-03T02:59:42.179Z,0
2017-11-03T03:00:42.496Z,0
2017-11-03T03:01:42.518Z,0
2017-11-03T03:02:42.178Z,0
2017-11-03T03:03:42.819Z,0
2017-11-03T03:04:42.493Z,0
2017-11-03T03:05:42.817Z,0
2017-11-03T03:06:42.478Z,0
2017-11-03T03:07:42.813Z,0
2017-11-03T03:08:42.144Z,0
2017-11-03T03:09:42.475Z,0
2017-11-03T03:10:42.829Z,0
2017-11-03T03:11:42.465Z,0
2017-11-03T03:12:42.789Z,0
2017-11-03T03:13:42.452Z,0
2017-11-03T03:14:42.454Z,0
2017-11-03T03:15:42.458Z,0
2017-11-03T03:16:42.773Z,0
2017-11-03T03:17:45.801Z,0
2017-11-03T03:18:42.762Z,0
2017-11-03T03:19:42.448Z,0
2017-11-03T03:20:42.755Z,0
2017-11-03T03:21:42.770Z,0
2017-11-03T03:22:42.759Z,0
2017-11-03T03:23:42.749Z,0
2017-11-03T03:24:42.764Z,0
2017-11-03T03:25:42.109Z,0
2017-11-03T03:26:42.114Z,0
2017-11-03T03:27:42.098Z,0
2017-11-03T03:28:42.412Z,0
2017-11-03T03:29:42.095Z,0
2017-11-03T03:30:42.741Z,0
2017-11-03T03:31:42.418Z,0
2017-11-03T03:32:42.412Z,0
2017-11-03T03:33:42.731Z,0
2017-11-03T03:34:42.401Z,0
2017-11-03T03:35:42.074Z,0
2017-11-03T03:36:42.711Z,0
2017-11-03T03:37:42.398Z,0
2017-11-03T03:38:42.078Z,0
2017-11-03T03:39:42.710Z,0
2017-11-03T03:40:42.715Z,0
2017-11-03T03:41:42.717Z,0
2017-11-03T03:42:42.732Z,0
2017-11-03T03:43:42.711Z,0
2017-11-03T03:44:42.386Z,0
2017-11-03T03:45:42.707Z,0
2017-11-03T03:46:42.374Z,0
2017-11-03T03:47:44.789Z,0
2017-11-03T03:48:42.680Z,0
2017-11-03T03:49:42.702Z,0
2017-11-03T03:50:42.686Z,0
2017-11-03T03:51:42.686Z,0
2017-11-03T03:52:41.720Z,0
2017-11-03T03:53:42.374Z,0
2017-11-03T03:54:42.667Z,0
2017-11-03T03:55:41.711Z,0
2017-11-03T03:56:42.345Z,0
2017-11-03T03:57:42.353Z,0
2017-11-03T03:58:42.340Z,0
2017-11-03T03:59:42.677Z,0
2017-11-03T04:00:42.031Z,0
2017-11-03T04:01:42.336Z,0
2017-11-03T04:02:42.330Z,0
2017-11-03T04:03:42.673Z,0
2017-11-03T04:04:42.346Z,0
2017-11-03T04:05:42.644Z,0
2017-11-03T04:06:42.324Z,0
2017-11-03T04:07:42.339Z,0
2017-11-03T04:08:42.323Z,0
2017-11-03T04:09:42.632Z,0
2017-11-03T04:10:42.311Z,0
2017-11-03T04:11:42.314Z,0
2017-11-03T04:12:42.634Z,0
2017-11-03T04:13:42.626Z,0
2017-11-03T04:14:42.301Z,0
2017-11-03T04:15:41.972Z,0
2017-11-03T04:16:42.632Z,0
2017-11-03T04:17:41.977Z,0
2017-11-03T04:18:43.517Z,0
2017-11-03T04:19:42.300Z,0
2017-11-03T04:20:42.285Z,0
2017-11-03T04:21:42.603Z,0
2017-11-03T04:22:41.979Z,0
2017-11-03T04:23:42.624Z,0
2017-11-03T04:24:42.282Z,0
2017-11-03T04:25:42.274Z,0
2017-11-03T04:26:42.596Z,0
2017-11-03T04:27:42.583Z,0
2017-11-03T04:28:42.586Z,0
2017-11-03T04:29:41.939Z,0
2017-11-03T04:30:42.595Z,0
2017-11-03T04:31:42.588Z,0
2017-11-03T04:32:42.253Z,0
2017-11-03T04:33:43.125Z,0
2017-11-03T04:34:42.245Z,0
2017-11-03T04:35:42.255Z,0
2017-11-03T04:36:42.249Z,0
2017-11-03T04:37:42.241Z,0
2017-11-03T04:38:42.576Z,0
2017-11-03T04:39:42.240Z,0
2017-11-03T04:40:42.557Z,0
2017-11-03T04:41:42.243Z,0
2017-11-03T04:42:41.902Z,0
2017-11-03T04:43:41.896Z,0
2017-11-03T04:44:42.237Z,0
2017-11-03T04:45:41.892Z,0
2017-11-03T04:46:41.889Z,0
2017-11-03T04:47:41.883Z,0
2017-11-03T04:48:45.016Z,0
2017-11-03T04:49:41.896Z,0
2017-11-03T04:50:42.207Z,0
2017-11-03T04:51:42.524Z,0
2017-11-03T04:52:42.526Z,0
2017-11-03T04:53:41.865Z,0
2017-11-03T04:54:42.511Z,0
2017-11-03T04:55:42.191Z,0
2017-11-03T04:56:41.861Z,0
2017-11-03T04:57:42.184Z,0
2017-11-03T04:58:42.190Z,0
2017-11-03T04:59:41.853Z,0
2017-11-03T05:00:41.854Z,0
2017-11-03T05:01:42.161Z,0
2017-11-03T05:02:42.162Z,0
2017-11-03T05:03:42.160Z,0
2017-11-03T05:04:42.170Z,0
2017-11-03T05:05:42.159Z,0
2017-11-03T05:06:42.146Z,0
2017-11-03T05:07:42.155Z,0
2017-11-03T05:08:42.169Z,0
2017-11-03T05:09:42.462Z,0
2017-11-03T05:10:42.142Z,0
2017-11-03T05:11:42.458Z,0
2017-11-03T05:12:42.454Z,0
2017-11-03T05:13:41.815Z,0
2017-11-03T05:14:42.131Z,0
2017-11-03T05:15:42.459Z,0
2017-11-03T05:16:42.455Z,0
2017-11-03T05:17:42.112Z,0
2017-11-03T05:18:42.114Z,0
2017-11-03T05:19:45.307Z,0
2017-11-03T05:20:41.795Z,0
2017-11-03T05:21:42.108Z,0
2017-11-03T05:22:42.442Z,0
2017-11-03T05:23:42.450Z,0
2017-11-03T05:24:42.417Z,0
2017-11-03T05:25:41.778Z,0
2017-11-03T05:26:42.751Z,0
2017-11-03T05:27:42.416Z,0
2017-11-03T05:28:42.413Z,0
2017-11-03T05:29:42.086Z,0
2017-11-03T05:30:42.405Z,0
2017-11-03T05:31:42.085Z,0
2017-11-03T05:32:41.756Z,0
2017-11-03T05:33:42.390Z,0
2017-11-03T05:34:42.396Z,0
2017-11-03T05:35:42.422Z,0
2017-11-03T05:36:42.403Z,0
2017-11-03T05:37:42.065Z,0
2017-11-03T05:38:41.734Z,0
2017-11-03T05:39:41.729Z,0
2017-11-03T05:40:42.386Z,0
2017-11-03T05:41:42.375Z,0
2017-11-03T05:42:42.367Z,0
2017-11-03T05:43:41.720Z,4
2017-11-03T05:44:42.057Z,4
2017-11-03T05:45:42.356Z,0
2017-11-03T05:46:42.376Z,4
2017-11-03T05:47:42.062Z,4
2017-11-03T05:48:42.349Z,4
2017-11-03T05:49:44.509Z,4
2017-11-03T05:50:42.036Z,4
2017-11-03T05:51:42.023Z,4
2017-11-03T05:52:42.337Z,8
2017-11-03T05:53:42.020Z,8
2017-11-03T05:54:42.021Z,12
2017-11-03T05:55:41.692Z,12
2017-11-03T05:56:42.026Z,12
2017-11-03T05:57:42.336Z,16
2017-11-03T05:58:42.005Z,16
2017-11-03T05:59:42.314Z,20
2017-11-03T06:00:42.322Z,24
2017-11-03T06:01:42.320Z,28
2017-11-03T06:02:42.313Z,32
2017-11-03T06:03:41.665Z,36
2017-11-03T06:04:41.661Z,44
2017-11-03T06:05:42.303Z,48
2017-11-03T06:06:42.304Z,56
2017-11-03T06:07:42.290Z,60
2017-11-03T06:08:41.968Z,68
2017-11-03T06:09:41.968Z,76
2017-11-03T06:10:42.304Z,84
2017-11-03T06:11:41.989Z,92
2017-11-03T06:12:41.957Z,100
2017-11-03T06:13:41.969Z,112
2017-11-03T06:14:42.274Z,120
2017-11-03T06:15:41.961Z,128
2017-11-03T06:16:41.640Z,136
2017-11-03T06:17:41.974Z,144
2017-11-03T06:18:41.950Z,160
2017-11-03T06:19:42.259Z,172
2017-11-03T06:20:44.050Z,184
2017-11-03T06:21:42.253Z,200
2017-11-03T06:22:41.929Z,212
2017-11-03T06:23:42.248Z,224
2017-11-03T06:24:42.239Z,236
2017-11-03T06:25:41.954Z,244
2017-11-03T06:26:41.915Z,260
2017-11-03T06:27:42.234Z,272
2017-11-03T06:28:41.911Z,284
2017-11-03T06:29:42.228Z,296
2017-11-03T06:30:41.628Z,312
2017-11-03T06:31:41.596Z,324
2017-11-03T06:32:41.912Z,336
2017-11-03T06:33:42.221Z,344
2017-11-03T06:34:42.213Z,356
2017-11-03T06:35:42.225Z,372
2017-11-03T06:36:41.900Z,380
2017-11-03T06:37:41.885Z,384
2017-11-03T06:38:41.888Z,396
2017-11-03T06:39:41.884Z,404
2017-11-03T06:40:41.581Z,416
2017-11-03T06:41:42.224Z,440
2017-11-03T06:42:41.875Z,452
2017-11-03T06:43:41.879Z,456
2017-11-03T06:44:42.194Z,460
2017-11-03T06:45:42.185Z,456
2017-11-03T06:46:42.183Z,448
2017-11-03T06:47:42.186Z,432
2017-11-03T06:48:42.174Z,420
2017-11-03T06:49:42.169Z,436
2017-11-03T06:50:42.944Z,464
2017-11-03T06:51:42.170Z,508
2017-11-03T06:52:41.843Z,556
2017-11-03T06:53:41.525Z,616
2017-11-03T06:54:42.156Z,684
2017-11-03T06:55:42.177Z,748
2017-11-03T06:56:42.153Z,796
2017-11-03T06:57:42.148Z,836
2017-11-03T06:58:41.520Z,860
2017-11-03T06:59:41.847Z,880
2017-11-03T07:00:41.558Z,896
2017-11-03T07:01:42.145Z,908
2017-11-03T07:02:42.150Z,912
2017-11-03T07:03:41.812Z,932
2017-11-03T07:04:42.144Z,948
2017-11-03T07:05:41.170Z,984
2017-11-03T07:06:41.517Z,1024
2017-11-03T07:07:41.812Z,1072
2017-11-03T07:08:42.127Z,1116
2017-11-03T07:09:42.123Z,1164
2017-11-03T07:10:41.803Z,1208
2017-11-03T07:11:42.117Z,1256
2017-11-03T07:12:42.127Z,1300
2017-11-03T07:13:42.131Z,1340
2017-11-03T07:14:42.119Z,1372
2017-11-03T07:15:41.799Z,1396
2017-11-03T07:16:42.119Z,1420
2017-11-03T07:17:42.121Z,1432
2017-11-03T07:18:42.125Z,1440
2017-11-03T07:19:42.103Z,1448
2017-11-03T07:20:41.125Z,1456
2017-11-03T07:21:42.503Z,1464
2017-11-03T07:22:41.124Z,1460
2017-11-03T07:23:42.088Z,1468
2017-11-03T07:24:41.768Z,1476
2017-11-03T07:25:41.766Z,1476
2017-11-03T07:26:41.457Z,1460
2017-11-03T07:27:41.748Z,1452
2017-11-03T07:28:41.750Z,1452
2017-11-03T07:29:41.449Z,1472
2017-11-03T07:30:41.757Z,1492
2017-11-03T07:31:41.749Z,1520
2017-11-03T07:32:42.077Z,1540
2017-11-03T07:33:41.444Z,1556
2017-11-03T07:34:42.076Z,1576
2017-11-03T07:35:41.459Z,1584
2017-11-03T07:36:41.645Z,1604
2017-11-03T07:37:41.095Z,1628
2017-11-03T07:38:41.736Z,1652
2017-11-03T07:39:41.733Z,1664
2017-11-03T07:40:42.067Z,1664
2017-11-03T07:41:42.052Z,1660
2017-11-03T07:42:42.057Z,1660
2017-11-03T07:43:41.740Z,1656
2017-11-03T07:44:41.415Z,1648
2017-11-03T07:45:41.742Z,1632
2017-11-03T07:46:41.711Z,1624
2017-11-03T07:47:41.724Z,1636
2017-11-03T07:48:41.424Z,1652
2017-11-03T07:49:41.704Z,1672
2017-11-03T07:50:41.711Z,1692
2017-11-03T07:51:45.227Z,1720
2017-11-03T07:52:42.027Z,1744
2017-11-03T07:53:41.708Z,1740
2017-11-03T07:54:41.701Z,1732
2017-11-03T07:55:41.709Z,1716
2017-11-03T07:56:42.028Z,1716
2017-11-03T07:57:41.055Z,1720
2017-11-03T07:58:42.010Z,1720
2017-11-03T07:59:42.010Z,1728
2017-11-03T08:00:41.691Z,1716
2017-11-03T08:01:41.365Z,1704
2017-11-03T08:02:42.005Z,1708
2017-11-03T08:03:41.696Z,1736
2017-11-03T08:04:41.686Z,1792
2017-11-03T08:05:41.363Z,1860
2017-11-03T08:06:41.697Z,1936
2017-11-03T08:07:41.924Z,2004
2017-11-03T08:08:41.361Z,2052
2017-11-03T08:09:41.997Z,2108
2017-11-03T08:10:42.014Z,2160
2017-11-03T08:11:41.982Z,2204
2017-11-03T08:12:41.685Z,2252
2017-11-03T08:13:41.668Z,2280
2017-11-03T08:14:41.663Z,2312
2017-11-03T08:15:42.001Z,2360
2017-11-03T08:16:41.347Z,2408
2017-11-03T08:17:41.676Z,2456
2017-11-03T08:18:41.981Z,2508
2017-11-03T08:19:41.661Z,2548
2017-11-03T08:20:41.667Z,2584
2017-11-03T08:21:41.960Z,2596
2017-11-03T08:22:42.222Z,2588
2017-11-03T08:23:41.968Z,2580
2017-11-03T08:24:41.677Z,2596
2017-11-03T08:25:41.662Z,2620
2017-11-03T08:26:41.662Z,2632
2017-11-03T08:27:41.683Z,2652
2017-11-03T08:28:41.657Z,2640
2017-11-03T08:29:41.966Z,2608
2017-11-03T08:30:41.664Z,2596
2017-11-03T08:31:41.638Z,2608
2017-11-03T08:32:41.649Z,2624
2017-11-03T08:33:41.638Z,2624
2017-11-03T08:34:41.967Z,2628
2017-11-03T08:35:42.032Z,2648
2017-11-03T08:36:41.645Z,2680
2017-11-03T08:37:41.304Z,2724
2017-11-03T08:38:40.993Z,2784
2017-11-03T08:39:41.942Z,2840
2017-11-03T08:40:41.654Z,2876
2017-11-03T08:41:41.645Z,2896
2017-11-03T08:42:41.624Z,2908
2017-11-03T08:43:41.940Z,2904
2017-11-03T08:44:41.629Z,2884
2017-11-03T08:45:41.954Z,2876
2017-11-03T08:46:41.314Z,2880
2017-11-03T08:47:41.663Z,2892
2017-11-03T08:48:41.619Z,2912
2017-11-03T08:49:41.916Z,2932
2017-11-03T08:50:41.298Z,2952
2017-11-03T08:51:41.617Z,2976
2017-11-03T08:52:44.774Z,3016
2017-11-03T08:53:41.610Z,3064
2017-11-03T08:54:41.598Z,3136
2017-11-03T08:55:41.941Z,3208
2017-11-03T08:56:41.614Z,3240
2017-11-03T08:57:41.260Z,3240
2017-11-03T08:58:41.918Z,3264
2017-11-03T08:59:41.274Z,3292
2017-11-03T09:00:41.919Z,3336
2017-11-03T09:01:41.609Z,3388
2017-11-03T09:02:41.916Z,3428
2017-11-03T09:03:41.593Z,3476
2017-11-03T09:04:41.604Z,3528
2017-11-03T09:05:41.898Z,3580
2017-11-03T09:06:41.906Z,3628
2017-11-03T09:07:41.938Z,3672
2017-11-03T09:08:41.901Z,3704
2017-11-03T09:09:41.577Z,3688
2017-11-03T09:10:41.903Z,3680
2017-11-03T09:11:41.597Z,3664
2017-11-03T09:12:41.567Z,3644
2017-11-03T09:13:41.892Z,3620
2017-11-03T09:14:41.875Z,3596
2017-11-03T09:15:41.249Z,3560
2017-11-03T09:16:41.235Z,3536
2017-11-03T09:17:41.232Z,3504
2017-11-03T09:18:41.582Z,3496
2017-11-03T09:19:41.875Z,3508
2017-11-03T09:20:41.603Z,3532
2017-11-03T09:21:41.879Z,3580
2017-11-03T09:22:41.817Z,3636
2017-11-03T09:23:41.553Z,3696
2017-11-03T09:24:41.575Z,3756
2017-11-03T09:25:41.251Z,3812
2017-11-03T09:26:41.553Z,3832
2017-11-03T09:27:41.876Z,3812
2017-11-03T09:28:41.870Z,3788
2017-11-03T09:29:41.871Z,3776
2017-11-03T09:30:41.877Z,3772
2017-11-03T09:31:41.872Z,3776
2017-11-03T09:32:40.899Z,3796
2017-11-03T09:33:41.857Z,3836
2017-11-03T09:34:41.223Z,3880
2017-11-03T09:35:41.589Z,3944
2017-11-03T09:36:41.542Z,4024
2017-11-03T09:37:41.564Z,4100
2017-11-03T09:38:41.554Z,4204
2017-11-03T09:39:41.221Z,4300
2017-11-03T09:40:41.224Z,4388
2017-11-03T09:41:41.883Z,4468
2017-11-03T09:42:41.924Z,4552
2017-11-03T09:43:41.946Z,4628
2017-11-03T09:44:41.584Z,4704
2017-11-03T09:45:41.216Z,4768
2017-11-03T09:46:41.228Z,4848
2017-11-03T09:47:41.545Z,4916
2017-11-03T09:48:41.539Z,4984
2017-11-03T09:49:41.209Z,5028
2017-11-03T09:50:41.562Z,5056
2017-11-03T09:51:41.545Z,5100
2017-11-03T09:52:41.205Z,5144
2017-11-03T09:53:42.744Z,5180
2017-11-03T09:54:41.556Z,5180
2017-11-03T09:55:41.204Z,5216
2017-11-03T09:56:41.532Z,5260
2017-11-03T09:57:41.784Z,5312
2017-11-03T09:58:41.525Z,5348
2017-11-03T09:59:41.860Z,5432
2017-11-03T10:00:41.878Z,5496
2017-11-03T10:01:41.551Z,5556
2017-11-03T10:02:41.201Z,5596
2017-11-03T10:03:41.544Z,5652
2017-11-03T10:04:41.860Z,5700
2017-11-03T10:05:41.203Z,5740
2017-11-03T10:06:41.199Z,5780
2017-11-03T10:07:41.533Z,5808
2017-11-03T10:08:41.204Z,5844
2017-11-03T10:09:41.529Z,5860
2017-11-03T10:10:41.222Z,5884
2017-11-03T10:11:41.546Z,5888
2017-11-03T10:12:41.838Z,5924
2017-11-03T10:13:41.922Z,5940
2017-11-03T10:14:41.537Z,5972
2017-11-03T10:15:41.860Z,5980
2017-11-03T10:16:41.527Z,5984
2017-11-03T10:17:41.537Z,6008
2017-11-03T10:18:41.548Z,6020
2017-11-03T10:19:41.194Z,6040
2017-11-03T10:20:41.620Z,6080
2017-11-03T10:21:41.549Z,6124
2017-11-03T10:22:41.859Z,6164
2017-11-03T10:23:44.438Z,6208
2017-11-03T10:24:41.217Z,6212
2017-11-03T10:25:41.552Z,6200
2017-11-03T10:26:41.535Z,6200
2017-11-03T10:27:41.203Z,6180
2017-11-03T10:28:41.555Z,6172
2017-11-03T10:29:41.551Z,6156
2017-11-03T10:30:41.236Z,6128
2017-11-03T10:31:41.216Z,6096
2017-11-03T10:32:41.576Z,6108
2017-11-03T10:33:41.845Z,6084
2017-11-03T10:34:41.542Z,6052
2017-11-03T10:35:41.552Z,6040
2017-11-03T10:36:40.880Z,6016
2017-11-03T10:37:41.541Z,5984
2017-11-03T10:38:41.906Z,5968
2017-11-03T10:39:41.860Z,5944
2017-11-03T10:40:41.215Z,5936
2017-11-03T10:41:41.547Z,5932
2017-11-03T10:42:41.558Z,5924
2017-11-03T10:43:41.545Z,5880
2017-11-03T10:44:41.566Z,5820
2017-11-03T10:45:41.239Z,5784
2017-11-03T10:46:41.545Z,5732
2017-11-03T10:47:41.294Z,5644
2017-11-03T10:48:41.303Z,5584
2017-11-03T10:49:41.864Z,5532
2017-11-03T10:50:41.566Z,5496
2017-11-03T10:51:41.581Z,5496
2017-11-03T10:52:41.250Z,5508
2017-11-03T10:53:47.212Z,5548
2017-11-03T10:54:41.219Z,5616
2017-11-03T10:55:41.223Z,5728
2017-11-03T10:56:41.594Z,5848
2017-11-03T10:57:41.211Z,5908
2017-11-03T10:58:41.859Z,6000
2017-11-03T10:59:41.241Z,6040
2017-11-03T11:00:41.564Z,6132
2017-11-03T11:01:41.583Z,6236
2017-11-03T11:02:41.553Z,6340
2017-11-03T11:03:41.877Z,6400
2017-11-03T11:04:40.906Z,6412
2017-11-03T11:05:41.877Z,6412
2017-11-03T11:06:41.558Z,6416
2017-11-03T11:07:41.269Z,6456
2017-11-03T11:08:41.582Z,6460
2017-11-03T11:09:41.268Z,6472
2017-11-03T11:10:41.234Z,6476
2017-11-03T11:11:41.570Z,6448
2017-11-03T11:12:40.905Z,6364
2017-11-03T11:13:41.871Z,6268
2017-11-03T11:14:41.580Z,6204
2017-11-03T11:15:41.890Z,6244
2017-11-03T11:16:41.565Z,6304
2017-11-03T11:17:41.223Z,6316
2017-11-03T11:18:41.887Z,6380
2017-11-03T11:19:42.833Z,6632
2017-11-03T11:20:40.970Z,6408
2017-11-03T11:21:41.881Z,6288
2017-11-03T11:22:41.250Z,6244
2017-11-03T11:23:41.239Z,6208
2017-11-03T11:24:41.760Z,6276
2017-11-03T11:25:41.900Z,6188
2017-11-03T11:26:41.235Z,6140
2017-11-03T11:27:41.242Z,6156
2017-11-03T11:28:41.898Z,6204
2017-11-03T11:29:41.896Z,6212
2017-11-03T11:30:41.630Z,6176
2017-11-03T11:31:41.908Z,6140
2017-11-03T11:32:41.259Z,6104
2017-11-03T11:33:41.597Z,6064
2017-11-03T11:34:41.586Z,6044
2017-11-03T11:35:42.011Z,6052
2017-11-03T11:36:41.610Z,6060
2017-11-03T11:37:41.254Z,6024
2017-11-03T11:38:41.660Z,5996
2017-11-03T11:39:41.684Z,6000
2017-11-03T11:40:41.620Z,6020
2017-11-03T11:41:41.728Z,6044
2017-11-03T11:42:41.885Z,6052
2017-11-03T11:43:41.389Z,6016
2017-11-03T11:44:41.487Z,6052
2017-11-03T11:45:41.994Z,6096
2017-11-03T11:46:41.596Z,6144
2017-11-03T11:47:41.597Z,6168
2017-11-03T11:48:42.086Z,6200
2017-11-03T11:49:41.954Z,6180
2017-11-03T11:50:41.099Z,6156
2017-11-03T11:51:41.116Z,6124
2017-11-03T11:52:41.403Z,6124
2017-11-03T11:53:41.723Z,6380
2017-11-03T11:54:44.711Z,6320
2017-11-03T11:55:41.650Z,6368
2017-11-03T11:56:41.622Z,6304
2017-11-03T11:57:41.595Z,6312
2017-11-03T11:58:41.293Z,6300
2017-11-03T11:59:41.278Z,6264
2017-11-03T12:00:41.679Z,6164
2017-11-03T12:01:41.608Z,6108
2017-11-03T12:02:41.674Z,6032
2017-11-03T12:03:41.610Z,5936
2017-11-03T12:04:41.628Z,5788
2017-11-03T12:05:41.940Z,5672
2017-11-03T12:06:41.646Z,5640
2017-11-03T12:07:41.623Z,5624
2017-11-03T12:08:41.038Z,5648
2017-11-03T12:09:41.950Z,5748
2017-11-03T12:10:41.938Z,5804
2017-11-03T12:11:41.408Z,5780
2017-11-03T12:12:41.296Z,5744
2017-11-03T12:13:41.652Z,5720
2017-11-03T12:14:41.621Z,5696
2017-11-03T12:15:41.308Z,5672
2017-11-03T12:16:41.300Z,5680
2017-11-03T12:17:41.294Z,5696
2017-11-03T12:18:41.655Z,5676
2017-11-03T12:19:41.318Z,5668
2017-11-03T12:20:41.307Z,5672
2017-11-03T12:21:41.352Z,5712
2017-11-03T12:22:41.683Z,5736
2017-11-03T12:23:42.016Z,5780
2017-11-03T12:24:41.645Z,5788
2017-11-03T12:25:44.815Z,5708
2017-11-03T12:26:41.373Z,5648
2017-11-03T12:27:41.320Z,5584
2017-11-03T12:28:41.942Z,5548
2017-11-03T12:29:41.658Z,5548
2017-11-03T12:30:41.957Z,5568
2017-11-03T12:31:41.962Z,5548
2017-11-03T12:32:41.310Z,5536
2017-11-03T12:33:41.947Z,5532
2017-11-03T12:34:41.635Z,5472
2017-11-03T12:35:41.637Z,5408
2017-11-03T12:36:41.639Z,5336
2017-11-03T12:37:41.951Z,5320
2017-11-03T12:38:41.965Z,5316
2017-11-03T12:39:41.964Z,5268
2017-11-03T12:40:41.705Z,5252
2017-11-03T12:41:41.314Z,5228
2017-11-03T12:42:41.697Z,5172
2017-11-03T12:43:41.677Z,5128
2017-11-03T12:44:41.696Z,5104
2017-11-03T12:45:41.697Z,5084
2017-11-03T12:46:41.668Z,5064
2017-11-03T12:47:41.669Z,5044
2017-11-03T12:48:43.011Z,5012
2017-11-03T12:49:42.262Z,4980
2017-11-03T12:50:41.691Z,4924
2017-11-03T12:51:41.320Z,4888
2017-11-03T12:52:41.651Z,4884
2017-11-03T12:53:41.976Z,4864
2017-11-03T12:54:41.983Z,4876
2017-11-03T12:55:43.339Z,4880
2017-11-03T12:56:41.658Z,4832
2017-11-03T12:57:41.341Z,4804
2017-11-03T12:58:41.327Z,4800
2017-11-03T12:59:41.328Z,4896
2017-11-03T13:00:41.976Z,4952
2017-11-03T13:01:41.672Z,4872
2017-11-03T13:02:41.690Z,4788
2017-11-03T13:03:41.978Z,4716
2017-11-03T13:04:41.983Z,4680
2017-11-03T13:05:41.336Z,4616
2017-11-03T13:06:41.700Z,4544
2017-11-03T13:07:41.700Z,4500
2017-11-03T13:08:41.346Z,4500
2017-11-03T13:09:41.978Z,4508
2017-11-03T13:10:41.680Z,4524
2017-11-03T13:11:41.721Z,4560
2017-11-03T13:12:41.019Z,4564
2017-11-03T13:13:41.677Z,4520
2017-11-03T13:14:41.699Z,4484
2017-11-03T13:15:41.365Z,4476
2017-11-03T13:16:41.990Z,4448
2017-11-03T13:17:41.675Z,4412
2017-11-03T13:18:41.677Z,4416
2017-11-03T13:19:41.990Z,4456
2017-11-03T13:20:42.012Z,4424
2017-11-03T13:21:41.731Z,4368
2017-11-03T13:22:41.706Z,4588
2017-11-03T13:23:41.991Z,4404
2017-11-03T13:24:41.681Z,4352
2017-11-03T13:25:41.731Z,4308
2017-11-03T13:26:43.575Z,4288
2017-11-03T13:27:41.704Z,4284
2017-11-03T13:28:41.720Z,4248
2017-11-03T13:29:41.699Z,4212
2017-11-03T13:30:41.737Z,4168
2017-11-03T13:31:41.373Z,4136
2017-11-03T13:32:41.689Z,4124
2017-11-03T13:33:41.703Z,4124
2017-11-03T13:34:42.003Z,4120
2017-11-03T13:35:42.017Z,4096
2017-11-03T13:36:41.366Z,4052
2017-11-03T13:37:42.035Z,4016
2017-11-03T13:38:41.997Z,3988
2017-11-03T13:39:42.054Z,3976
2017-11-03T13:40:42.013Z,3984
2017-11-03T13:41:43.334Z,4012
2017-11-03T13:42:41.714Z,4020
2017-11-03T13:43:41.380Z,4016
2017-11-03T13:44:41.695Z,4016
2017-11-03T13:45:41.370Z,4000
2017-11-03T13:46:42.006Z,4052
2017-11-03T13:47:41.720Z,4028
2017-11-03T13:48:41.448Z,4008
2017-11-03T13:49:41.401Z,3948
2017-11-03T13:50:41.715Z,3920
2017-11-03T13:51:41.783Z,3892
2017-11-03T13:52:41.465Z,3852
2017-11-03T13:53:41.133Z,3844
2017-11-03T13:54:41.576Z,3860
2017-11-03T13:55:41.832Z,3808
2017-11-03T13:56:43.737Z,3800